createdAt,value
2018-09-24T00:00:18.831Z,82.70
2018-09-24T00:02:46.173Z,81.80
2018-09-24T00:05:13.492Z,82.10
2018-09-24T00:07:40.796Z,82.90
2018-09-24T00:10:08.165Z,83.40
2018-09-24T00:12:35.487Z,83.40
2018-09-24T00:15:02.792Z,83.20
2018-09-24T00:17:30.172Z,82.90
2018-09-24T00:19:57.455Z,83.00
2018-09-24T00:22:24.763Z,82.90
2018-09-24T00:24:52.107Z,83.10
2018-09-24T00:27:19.756Z,83.20
2018-09-24T00:29:47.092Z,83.40
2018-09-24T00:32:14.397Z,83.50
2018-09-24T00:34:41.731Z,83.00
2018-09-24T00:37:09.052Z,82.70
2018-09-24T00:39:36.365Z,82.80
2018-09-24T00:42:03.720Z,82.80
2018-09-24T00:44:31.044Z,82.50
2018-09-24T00:46:58.347Z,82.90
2018-09-24T00:49:25.704Z,82.70
2018-09-24T00:51:53.080Z,82.70
2018-09-24T00:54:20.439Z,82.30
2018-09-24T00:56:47.788Z,82.50
2018-09-24T00:59:15.106Z,82.20
2018-09-24T01:01:42.413Z,81.70
2018-09-24T01:04:09.752Z,82.10
2018-09-24T01:06:37.067Z,82.40
2018-09-24T01:09:06.541Z,82.20
2018-09-24T01:11:33.867Z,82.20
2018-09-24T01:14:01.186Z,82.00
2018-09-24T01:16:28.505Z,82.20
2018-09-24T01:18:55.840Z,82.40
2018-09-24T01:21:23.189Z,82.30
2018-09-24T01:23:50.543Z,81.90
2018-09-24T01:26:17.903Z,82.10
2018-09-24T01:28:45.228Z,82.30
2018-09-24T01:31:12.552Z,82.40
2018-09-24T01:33:39.908Z,82.50
2018-09-24T01:36:07.224Z,82.40
2018-09-24T01:38:34.540Z,82.30
2018-09-24T01:41:01.860Z,82.40
2018-09-24T01:43:29.196Z,82.30
2018-09-24T01:45:56.501Z,82.50
2018-09-24T01:48:23.844Z,81.90
2018-09-24T01:50:51.170Z,81.70
2018-09-24T01:53:18.479Z,82.00
2018-09-24T01:55:49.581Z,82.10
2018-09-24T01:58:16.900Z,81.60
2018-09-24T02:00:44.216Z,80.30
2018-09-24T02:03:11.563Z,80.50
2018-09-24T02:05:38.896Z,80.90
2018-09-24T02:08:06.219Z,81.10
2018-09-24T02:10:33.536Z,80.80
2018-09-24T02:13:00.850Z,80.80
2018-09-24T02:15:28.217Z,80.50
2018-09-24T02:17:55.531Z,80.40
2018-09-24T02:20:22.882Z,81.00
2018-09-24T02:22:50.218Z,81.50
2018-09-24T02:25:17.534Z,81.70
2018-09-24T02:27:44.879Z,81.10
2018-09-24T02:30:14.088Z,81.30
2018-09-24T02:32:41.457Z,81.40
2018-09-24T02:35:08.929Z,81.90
2018-09-24T02:37:36.240Z,81.70
2018-09-24T02:40:03.709Z,81.60
2018-09-24T02:42:31.091Z,81.90
2018-09-24T02:44:58.475Z,82.10
2018-09-24T02:47:25.797Z,82.10
2018-09-24T02:49:53.119Z,82.10
2018-09-24T02:52:20.427Z,82.00
2018-09-24T02:54:47.805Z,82.30
2018-09-24T02:57:15.134Z,82.70
2018-09-24T02:59:43.854Z,82.50
2018-09-24T03:02:11.214Z,82.40
2018-09-24T03:04:38.528Z,82.50
2018-09-24T03:07:05.867Z,82.40
2018-09-24T03:09:34.144Z,82.40
2018-09-24T03:12:01.476Z,82.60
2018-09-24T03:14:28.861Z,82.70
2018-09-24T03:16:56.325Z,82.70
2018-09-24T03:19:24.020Z,82.60
2018-09-24T03:21:51.348Z,82.70
2018-09-24T03:24:18.696Z,82.60
2018-09-24T03:26:46.004Z,82.50
2018-09-24T03:29:19.666Z,82.50
2018-09-24T03:31:46.976Z,82.30
2018-09-24T03:34:14.306Z,82.10
2018-09-24T03:36:41.631Z,82.50
2018-09-24T03:39:08.972Z,82.90
2018-09-24T03:41:36.310Z,82.40
2018-09-24T03:44:03.630Z,82.00
2018-09-24T03:46:31.009Z,82.10
2018-09-24T03:48:58.311Z,82.60
2018-09-24T03:51:25.863Z,82.50
2018-09-24T03:53:53.215Z,83.10
2018-09-24T03:56:20.517Z,83.10
2018-09-24T03:58:47.861Z,83.20
2018-09-24T04:01:15.170Z,83.30
2018-09-24T04:03:42.482Z,83.30
2018-09-24T04:06:09.812Z,83.40
2018-09-24T04:08:37.147Z,83.60
2018-09-24T04:11:04.452Z,83.70
2018-09-24T04:13:31.789Z,83.60
2018-09-24T04:15:59.103Z,83.80
2018-09-24T04:18:26.477Z,83.30
2018-09-24T04:20:53.804Z,83.10
2018-09-24T04:23:21.123Z,83.10
2018-09-24T04:25:48.452Z,83.00
2018-09-24T04:28:15.783Z,83.10
2018-09-24T04:30:43.116Z,83.30
2018-09-24T04:33:10.436Z,83.70
2018-09-24T04:35:37.765Z,83.50
2018-09-24T04:38:05.129Z,83.40
2018-09-24T04:40:32.453Z,83.30
2018-09-24T04:42:59.778Z,83.20
2018-09-24T04:45:27.282Z,82.70
2018-09-24T04:47:54.590Z,82.70
2018-09-24T04:50:21.945Z,82.70
2018-09-24T04:52:49.325Z,83.20
2018-09-24T04:55:16.667Z,82.90
2018-09-24T04:57:44.011Z,83.10
2018-09-24T05:00:11.327Z,83.20
2018-09-24T05:02:38.676Z,83.20
2018-09-24T05:05:05.999Z,83.70
2018-09-24T05:07:33.356Z,83.80
2018-09-24T05:10:01.120Z,84.20
2018-09-24T05:12:28.406Z,84.10
2018-09-24T05:14:55.777Z,84.20
2018-09-24T05:17:23.107Z,84.20
2018-09-24T05:19:50.446Z,83.90
2018-09-24T05:22:17.786Z,83.90
2018-09-24T05:24:45.107Z,84.20
2018-09-24T05:27:12.455Z,84.20
2018-09-24T05:29:39.775Z,84.40
2018-09-24T05:32:07.219Z,84.50
2018-09-24T05:34:34.607Z,84.60
2018-09-24T05:37:01.933Z,84.50
2018-09-24T05:39:29.257Z,84.40
2018-09-24T05:41:56.567Z,84.70
2018-09-24T05:44:23.894Z,84.30
2018-09-24T05:46:51.269Z,84.30
2018-09-24T05:49:18.608Z,83.70
2018-09-24T05:51:45.919Z,83.80
2018-09-24T05:54:13.306Z,83.30
2018-09-24T05:56:40.603Z,83.70
2018-09-24T05:59:08.106Z,83.80
2018-09-24T06:01:35.424Z,83.40
2018-09-24T06:04:02.899Z,83.60
2018-09-24T06:06:30.334Z,84.20
2018-09-24T06:08:57.743Z,84.10
2018-09-24T06:11:25.083Z,84.40
2018-09-24T06:13:52.424Z,84.30
2018-09-24T06:16:19.744Z,84.10
2018-09-24T06:18:47.083Z,84.30
2018-09-24T06:21:14.411Z,83.80
2018-09-24T06:23:41.760Z,83.70
2018-09-24T06:26:09.332Z,83.70
2018-09-24T06:28:36.659Z,83.70
2018-09-24T06:31:04.008Z,83.10
2018-09-24T06:33:31.445Z,82.60
2018-09-24T06:35:58.798Z,82.50
2018-09-24T06:38:26.751Z,82.30
2018-09-24T06:40:54.067Z,82.10
2018-09-24T06:43:22.715Z,82.50
2018-09-24T06:45:50.271Z,81.80
2018-09-24T06:48:21.591Z,81.80
2018-09-24T06:50:48.919Z,81.40
2018-09-24T06:53:16.259Z,80.80
2018-09-24T06:55:43.663Z,80.20
2018-09-24T06:58:10.984Z,79.10
2018-09-24T07:00:38.303Z,78.80
2018-09-24T07:03:05.844Z,78.90
2018-09-24T07:05:33.246Z,78.00
2018-09-24T07:08:00.551Z,78.60
2018-09-24T07:10:27.863Z,79.40
2018-09-24T07:12:55.176Z,78.80
2018-09-24T07:15:22.506Z,78.80
2018-09-24T07:17:49.832Z,77.80
2018-09-24T07:20:17.179Z,78.00
2018-09-24T07:22:44.522Z,78.60
2018-09-24T07:25:11.851Z,78.80
2018-09-24T07:27:39.193Z,79.20
2018-09-24T07:30:06.505Z,79.10
2018-09-24T07:32:33.847Z,79.10
2018-09-24T07:35:01.184Z,77.80
2018-09-24T07:37:29.170Z,77.80
2018-09-24T07:39:56.532Z,77.90
2018-09-24T07:42:23.860Z,77.30
2018-09-24T07:44:51.192Z,77.00
2018-09-24T07:47:18.516Z,77.10
2018-09-24T07:49:45.864Z,77.20
2018-09-24T07:52:13.200Z,76.90
2018-09-24T07:54:40.535Z,77.30
2018-09-24T07:57:07.877Z,77.20
2018-09-24T07:59:35.215Z,77.30
2018-09-24T08:02:02.532Z,77.30
2018-09-24T08:04:29.871Z,76.80
2018-09-24T08:06:57.223Z,77.10
2018-09-24T08:09:24.532Z,77.00
2018-09-24T08:11:51.867Z,76.60
2018-09-24T08:14:19.249Z,76.60
2018-09-24T08:16:46.572Z,76.10
2018-09-24T08:19:13.935Z,75.90
2018-09-24T08:21:41.272Z,75.50
2018-09-24T08:24:08.604Z,75.60
2018-09-24T08:26:35.923Z,74.40
2018-09-24T08:29:03.256Z,74.20
2018-09-24T08:31:30.592Z,73.90
2018-09-24T08:33:57.937Z,73.20
2018-09-24T08:36:25.275Z,73.10
2018-09-24T08:38:52.607Z,72.40
2018-09-24T08:41:19.971Z,71.70
2018-09-24T08:43:47.277Z,72.50
2018-09-24T08:46:14.624Z,71.60
2018-09-24T08:48:41.923Z,71.60
2018-09-24T08:51:09.280Z,70.10
2018-09-24T08:53:36.604Z,69.80
2018-09-24T08:56:03.937Z,70.10
2018-09-24T08:58:31.240Z,70.80
2018-09-24T09:00:58.567Z,70.00
2018-09-24T09:03:25.927Z,70.30
2018-09-24T09:05:53.271Z,69.60
2018-09-24T09:08:20.699Z,68.30
2018-09-24T09:10:48.007Z,68.30
2018-09-24T09:13:15.323Z,68.50
2018-09-24T09:15:42.664Z,69.60
2018-09-24T09:18:10.043Z,68.30
2018-09-24T09:20:37.395Z,68.10
2018-09-24T09:23:04.854Z,68.20
2018-09-24T09:25:32.261Z,67.90
2018-09-24T09:27:59.628Z,67.30
2018-09-24T09:30:26.946Z,68.10
2018-09-24T09:32:54.271Z,68.50
2018-09-24T09:35:21.657Z,68.50
2018-09-24T09:37:48.947Z,67.70
2018-09-24T09:40:16.268Z,67.50
2018-09-24T09:42:43.663Z,67.50
2018-09-24T09:45:10.978Z,67.20
2018-09-24T09:47:38.297Z,67.20
2018-09-24T09:50:05.781Z,66.80
2018-09-24T09:52:33.140Z,65.10
2018-09-24T09:55:00.487Z,64.20
2018-09-24T09:57:27.831Z,64.00
2018-09-24T09:59:55.180Z,63.90
2018-09-24T10:02:22.491Z,64.20
2018-09-24T10:04:49.882Z,63.80
2018-09-24T10:07:17.160Z,64.70
2018-09-24T10:09:44.497Z,64.40
2018-09-24T10:12:11.799Z,63.70
2018-09-24T10:14:39.229Z,64.50
2018-09-24T10:17:06.562Z,64.10
2018-09-24T10:19:33.883Z,64.80
2018-09-24T10:22:01.270Z,65.20
2018-09-24T10:24:28.643Z,63.50
2018-09-24T10:26:55.988Z,63.60
2018-09-24T10:29:23.294Z,63.90
2018-09-24T10:31:50.637Z,63.80
2018-09-24T10:34:17.963Z,63.70
2018-09-24T10:36:45.380Z,61.60
2018-09-24T10:39:12.732Z,62.60
2018-09-24T10:41:40.445Z,63.00
2018-09-24T10:44:07.790Z,62.70
2018-09-24T10:46:35.175Z,61.90
2018-09-24T10:49:02.489Z,61.10
2018-09-24T10:51:30.394Z,61.70
2018-09-24T10:53:57.732Z,61.80
2018-09-24T10:56:25.040Z,62.10
2018-09-24T10:58:52.387Z,63.60
2018-09-24T11:01:19.727Z,62.80
2018-09-24T11:03:47.043Z,63.70
2018-09-24T11:06:14.393Z,63.80
2018-09-24T11:08:41.724Z,64.80
2018-09-24T11:11:09.239Z,65.00
2018-09-24T11:13:36.591Z,64.00
2018-09-24T11:16:04.075Z,64.20
2018-09-24T11:18:31.231Z,64.10
2018-09-24T11:20:58.581Z,63.70
2018-09-24T11:23:25.939Z,63.30
2018-09-24T11:25:53.248Z,60.80
2018-09-24T11:28:20.983Z,61.20
2018-09-24T11:30:48.296Z,61.40
2018-09-24T11:33:15.614Z,59.90
2018-09-24T11:35:42.948Z,60.10
2018-09-24T11:38:10.385Z,60.20
2018-09-24T11:40:37.699Z,60.20
2018-09-24T11:43:05.036Z,60.10
2018-09-24T11:45:32.366Z,59.20
2018-09-24T11:47:59.759Z,59.50
2018-09-24T11:50:27.071Z,59.20
2018-09-24T11:52:54.402Z,60.00
2018-09-24T11:55:21.747Z,60.30
2018-09-24T11:57:49.102Z,58.70
2018-09-24T12:00:16.417Z,58.70
2018-09-24T12:02:43.752Z,59.10
2018-09-24T12:05:11.088Z,59.30
2018-09-24T12:07:38.423Z,58.10
2018-09-24T12:10:05.820Z,57.90
2018-09-24T12:12:33.733Z,57.30
2018-09-24T12:15:01.066Z,57.60
2018-09-24T12:17:28.406Z,58.30
2018-09-24T12:19:55.728Z,58.60
2018-09-24T12:22:23.066Z,58.70
2018-09-24T12:24:50.407Z,59.00
2018-09-24T12:27:17.707Z,59.00
2018-09-24T12:29:45.043Z,58.20
2018-09-24T12:32:12.470Z,59.00
2018-09-24T12:34:39.817Z,58.30
2018-09-24T12:37:07.218Z,58.50
2018-09-24T12:39:34.560Z,58.60
2018-09-24T12:42:01.911Z,58.20
2018-09-24T12:44:29.360Z,58.30
2018-09-24T12:46:56.725Z,58.30
2018-09-24T12:49:24.060Z,58.80
2018-09-24T12:51:51.432Z,58.70
2018-09-24T12:54:18.766Z,58.40
2018-09-24T12:56:46.075Z,58.80
2018-09-24T12:59:13.423Z,58.60
2018-09-24T13:01:40.761Z,59.70
2018-09-24T13:04:08.099Z,60.40
2018-09-24T13:06:35.442Z,61.20
2018-09-24T13:09:02.756Z,61.10
2018-09-24T13:11:30.087Z,62.10
2018-09-24T13:13:57.473Z,62.50
2018-09-24T13:16:24.864Z,61.80
2018-09-24T13:18:52.219Z,61.90
2018-09-24T13:21:19.633Z,61.30
2018-09-24T13:23:46.935Z,61.90
2018-09-24T13:26:14.267Z,61.00
2018-09-24T13:28:41.643Z,61.80
2018-09-24T13:31:08.951Z,62.30
2018-09-24T13:33:36.279Z,61.80
2018-09-24T13:36:03.613Z,61.30
2018-09-24T13:38:30.987Z,61.80
2018-09-24T13:40:58.324Z,61.50
2018-09-24T13:43:25.759Z,61.70
2018-09-24T13:45:53.092Z,60.90
2018-09-24T13:48:20.413Z,61.10
2018-09-24T13:50:47.829Z,61.00
2018-09-24T13:53:15.185Z,60.10
2018-09-24T13:55:42.454Z,60.50
2018-09-24T13:58:09.792Z,60.20
2018-09-24T14:00:37.108Z,59.70
2018-09-24T14:03:04.709Z,59.20
2018-09-24T14:05:32.059Z,59.50
2018-09-24T14:07:59.372Z,59.20
2018-09-24T14:10:26.752Z,59.20
2018-09-24T14:12:54.079Z,60.00
2018-09-24T14:15:21.564Z,59.70
2018-09-24T14:17:49.076Z,59.20
2018-09-24T14:20:16.421Z,60.00
2018-09-24T14:22:43.723Z,58.90
2018-09-24T14:25:11.065Z,59.90
2018-09-24T14:27:38.994Z,60.40
2018-09-24T14:30:06.946Z,59.40
2018-09-24T14:32:34.247Z,60.30
2018-09-24T14:35:01.597Z,63.20
2018-09-24T14:37:28.960Z,67.30
2018-09-24T14:39:56.301Z,70.30
2018-09-24T14:42:23.637Z,72.60
2018-09-24T14:44:50.994Z,74.40
2018-09-24T14:47:18.312Z,74.10
2018-09-24T14:49:45.644Z,74.10
2018-09-24T14:52:12.959Z,74.50
2018-09-24T14:54:40.263Z,72.80
2018-09-24T14:57:07.642Z,71.70
2018-09-24T14:59:34.930Z,70.50
2018-09-24T15:02:02.309Z,71.30
2018-09-24T15:04:29.647Z,71.50
2018-09-24T15:06:56.989Z,69.50
2018-09-24T15:09:24.326Z,71.20
2018-09-24T15:11:51.656Z,70.90
2018-09-24T15:14:19.004Z,70.90
2018-09-24T15:16:46.352Z,71.00
2018-09-24T15:19:13.666Z,69.70
2018-09-24T15:21:41.093Z,70.10
2018-09-24T15:24:08.415Z,70.60
2018-09-24T15:26:35.802Z,69.70
2018-09-24T15:29:03.167Z,69.70
2018-09-24T15:31:30.488Z,70.30
2018-09-24T15:33:57.809Z,70.00
2018-09-24T15:36:25.141Z,69.70
2018-09-24T15:38:52.471Z,69.70
2018-09-24T15:41:19.819Z,70.00
2018-09-24T15:43:47.140Z,70.50
2018-09-24T15:46:14.473Z,70.50
2018-09-24T15:48:41.795Z,70.00
2018-09-24T15:51:09.156Z,70.30
2018-09-24T15:53:36.627Z,70.50
2018-09-24T15:56:03.915Z,68.90
2018-09-24T15:58:31.303Z,68.80
2018-09-24T16:00:58.611Z,69.10
2018-09-24T16:03:26.096Z,66.90
2018-09-24T16:05:53.403Z,66.50
2018-09-24T16:08:20.737Z,65.90
2018-09-24T16:10:48.056Z,65.90
2018-09-24T16:13:15.399Z,66.30
2018-09-24T16:15:42.719Z,65.50
2018-09-24T16:18:10.036Z,65.40
2018-09-24T16:20:37.355Z,65.40
2018-09-24T16:23:04.693Z,66.20
2018-09-24T16:25:32.016Z,65.70
2018-09-24T16:27:59.384Z,65.50
2018-09-24T16:30:26.745Z,65.30
2018-09-24T16:32:54.111Z,65.60
2018-09-24T16:35:21.438Z,64.90
2018-09-24T16:37:48.787Z,64.70
2018-09-24T16:40:16.155Z,65.10
2018-09-24T16:42:43.491Z,65.30
2018-09-24T16:45:10.808Z,65.70
2018-09-24T16:47:38.167Z,65.70
2018-09-24T16:50:05.860Z,65.90
2018-09-24T16:52:33.247Z,66.60
2018-09-24T16:55:00.595Z,66.50
2018-09-24T16:57:27.918Z,66.70
2018-09-24T16:59:55.273Z,66.70
2018-09-24T17:02:22.605Z,66.60
2018-09-24T17:04:49.978Z,67.40
2018-09-24T17:07:17.282Z,66.80
2018-09-24T17:09:44.612Z,67.20
2018-09-24T17:12:12.157Z,67.90
2018-09-24T17:14:39.437Z,68.30
2018-09-24T17:17:06.798Z,68.60
2018-09-24T17:19:34.080Z,69.20
2018-09-24T17:22:01.416Z,69.60
2018-09-24T17:24:28.817Z,70.00
2018-09-24T17:26:56.118Z,69.80
2018-09-24T17:29:23.473Z,70.70
2018-09-24T17:31:50.820Z,70.80
2018-09-24T17:34:18.187Z,71.00
2018-09-24T17:36:45.533Z,71.20
2018-09-24T17:39:12.859Z,71.20
2018-09-24T17:41:40.208Z,71.40
2018-09-24T17:44:07.570Z,71.30
2018-09-24T17:46:34.928Z,70.90
2018-09-24T17:49:02.247Z,71.70
2018-09-24T17:51:29.578Z,71.30
2018-09-24T17:53:56.889Z,71.70
2018-09-24T17:56:24.342Z,72.20
2018-09-24T17:58:51.742Z,72.10
2018-09-24T18:01:19.073Z,72.20
2018-09-24T18:03:46.450Z,72.60
2018-09-24T18:06:13.775Z,72.40
2018-09-24T18:08:41.127Z,72.80
2018-09-24T18:11:08.466Z,72.90
2018-09-24T18:13:35.812Z,73.20
2018-09-24T18:16:03.164Z,73.30
2018-09-24T18:18:30.480Z,73.20
2018-09-24T18:20:58.473Z,73.10
2018-09-24T18:23:26.247Z,73.50
2018-09-24T18:25:53.680Z,73.90
2018-09-24T18:28:21.029Z,74.40
2018-09-24T18:30:48.349Z,74.50
2018-09-24T18:33:16.085Z,74.90
2018-09-24T18:35:43.457Z,75.20
2018-09-24T18:38:10.809Z,75.60
2018-09-24T18:40:38.169Z,75.30
2018-09-24T18:43:05.650Z,75.20
2018-09-24T18:45:33.015Z,75.50
2018-09-24T18:48:00.351Z,75.30
2018-09-24T18:50:29.219Z,75.60
2018-09-24T18:52:56.565Z,75.80
2018-09-24T18:55:24.177Z,75.40
2018-09-24T18:57:51.506Z,75.80
2018-09-24T19:00:18.860Z,75.20
2018-09-24T19:02:46.193Z,75.70
2018-09-24T19:05:13.570Z,76.00
2018-09-24T19:07:40.903Z,76.40
2018-09-24T19:10:08.231Z,76.70
2018-09-24T19:12:35.559Z,76.60
2018-09-24T19:15:02.898Z,76.90
2018-09-24T19:17:30.207Z,76.60
2018-09-24T19:19:57.544Z,76.50
2018-09-24T19:22:24.927Z,76.30
2018-09-24T19:24:52.291Z,76.70
2018-09-24T19:27:19.675Z,76.30
2018-09-24T19:29:46.930Z,76.50
2018-09-24T19:32:14.363Z,76.50
2018-09-24T19:34:41.675Z,76.20
2018-09-24T19:37:09.266Z,75.80
2018-09-24T19:39:36.351Z,75.80
2018-09-24T19:42:03.810Z,75.90
2018-09-24T19:44:31.159Z,76.20
2018-09-24T19:46:58.465Z,76.20
2018-09-24T19:49:25.783Z,76.70
2018-09-24T19:51:53.563Z,76.90
2018-09-24T19:54:20.903Z,76.90
2018-09-24T19:56:48.238Z,76.90
2018-09-24T19:59:15.588Z,77.30
2018-09-24T20:01:42.959Z,77.60
2018-09-24T20:04:10.218Z,77.50
2018-09-24T20:06:37.540Z,77.40
2018-09-24T20:09:07.369Z,77.50
2018-09-24T20:11:34.694Z,77.20
2018-09-24T20:14:02.007Z,77.80
2018-09-24T20:16:29.352Z,76.80
2018-09-24T20:18:56.695Z,77.20
2018-09-24T20:21:23.988Z,77.60
2018-09-24T20:23:51.323Z,77.10
2018-09-24T20:26:18.680Z,77.40
2018-09-24T20:28:46.015Z,77.30
2018-09-24T20:31:13.366Z,78.20
2018-09-24T20:33:40.720Z,77.00
2018-09-24T20:36:08.047Z,76.20
2018-09-24T20:38:35.370Z,76.80
2018-09-24T20:41:02.695Z,76.60
2018-09-24T20:43:30.039Z,76.10
2018-09-24T20:45:57.387Z,76.00
2018-09-24T20:48:25.361Z,75.90
2018-09-24T20:50:52.671Z,76.10
2018-09-24T20:53:20.011Z,76.60
2018-09-24T20:55:47.333Z,76.20
2018-09-24T20:58:14.690Z,76.30
2018-09-24T21:00:42.023Z,76.00
2018-09-24T21:03:09.347Z,76.20
2018-09-24T21:05:36.688Z,76.30
2018-09-24T21:08:04.025Z,76.00
2018-09-24T21:10:31.376Z,76.80
2018-09-24T21:12:58.747Z,76.30
2018-09-24T21:15:26.068Z,76.90
2018-09-24T21:17:53.415Z,76.90
2018-09-24T21:20:20.737Z,76.90
2018-09-24T21:22:48.061Z,77.30
2018-09-24T21:25:15.471Z,77.70
2018-09-24T21:27:42.779Z,77.30
2018-09-24T21:30:10.122Z,77.90
2018-09-24T21:32:37.432Z,77.30
2018-09-24T21:35:04.790Z,77.50
2018-09-24T21:37:32.102Z,77.70
2018-09-24T21:39:59.495Z,77.50
2018-09-24T21:42:26.810Z,78.20
2018-09-24T21:44:54.249Z,78.30
2018-09-24T21:47:21.500Z,77.50
2018-09-24T21:49:48.844Z,77.30
2018-09-24T21:52:16.143Z,77.60
2018-09-24T21:54:43.450Z,78.60
2018-09-24T21:57:10.825Z,78.50
2018-09-24T21:59:38.124Z,78.80
2018-09-24T22:02:05.695Z,78.70
2018-09-24T22:04:33.222Z,78.60
2018-09-24T22:07:00.651Z,78.60
2018-09-24T22:09:27.967Z,78.10
2018-09-24T22:11:55.391Z,77.70
2018-09-24T22:14:22.698Z,78.30
2018-09-24T22:16:50.083Z,78.50
2018-09-24T22:19:17.380Z,78.60
2018-09-24T22:21:44.714Z,80.00
2018-09-24T22:24:12.067Z,79.10
2018-09-24T22:26:39.515Z,79.50
2018-09-24T22:29:06.960Z,79.60
2018-09-24T22:31:34.365Z,80.30
2018-09-24T22:34:01.713Z,80.90
2018-09-24T22:36:29.046Z,81.00
2018-09-24T22:39:05.711Z,80.80
2018-09-24T22:41:33.131Z,81.40
2018-09-24T22:44:00.450Z,81.90
2018-09-24T22:46:27.837Z,82.20
2018-09-24T22:48:55.104Z,82.10
2018-09-24T22:51:22.436Z,81.40
2018-09-24T22:53:49.755Z,81.10
2018-09-24T22:56:17.092Z,81.30
2018-09-24T22:58:44.408Z,81.60
2018-09-24T23:01:11.739Z,81.10
2018-09-24T23:03:39.045Z,81.10
2018-09-24T23:06:06.372Z,80.30
2018-09-24T23:08:33.690Z,80.70
2018-09-24T23:11:01.048Z,80.30
2018-09-24T23:13:28.374Z,79.40
2018-09-24T23:15:55.687Z,80.70
2018-09-24T23:18:23.007Z,80.60
2018-09-24T23:20:50.363Z,79.80
2018-09-24T23:23:17.668Z,80.30
2018-09-24T23:25:45.572Z,80.80
2018-09-24T23:28:12.904Z,80.30
2018-09-24T23:30:40.213Z,80.50
2018-09-24T23:33:07.588Z,79.40
2018-09-24T23:35:34.927Z,80.60
2018-09-24T23:38:02.277Z,81.00
2018-09-24T23:40:29.617Z,80.90
2018-09-24T23:42:56.943Z,81.10
2018-09-24T23:45:24.298Z,80.50
2018-09-24T23:47:51.612Z,80.90
2018-09-24T23:50:18.966Z,81.80
2018-09-24T23:52:46.281Z,81.90
2018-09-24T23:55:13.617Z,81.30
2018-09-24T23:57:40.966Z,81.90
